createdAt,value
2018-09-29T00:00:53.704Z,1021.89
2018-09-29T00:01:53.684Z,1021.95
2018-09-29T00:02:53.669Z,1021.96
2018-09-29T00:03:53.648Z,1021.98
2018-09-29T00:04:53.659Z,1021.96
2018-09-29T00:05:53.613Z,1022.02
2018-09-29T00:06:53.598Z,1022.06
2018-09-29T00:07:53.576Z,1022.09
2018-09-29T00:08:53.559Z,1022.04
2018-09-29T00:09:53.547Z,1022.04
2018-09-29T00:10:53.522Z,1022.1
2018-09-29T00:11:53.505Z,1022.08
2018-09-29T00:12:53.486Z,1022.06
2018-09-29T00:13:53.468Z,1022.09
2018-09-29T00:14:53.452Z,1022.06
2018-09-29T00:15:53.433Z,1022.03
2018-09-29T00:16:53.414Z,1022.01
2018-09-29T00:17:53.398Z,1022
2018-09-29T00:18:53.379Z,1022.02
2018-09-29T00:19:53.359Z,1022.01
2018-09-29T00:20:53.341Z,1022.06
2018-09-29T00:21:53.325Z,1022.06
2018-09-29T00:22:53.305Z,1022.09
2018-09-29T00:23:53.285Z,1022.08
2018-09-29T00:24:53.269Z,1022.08
2018-09-29T00:25:53.257Z,1022.06
2018-09-29T00:26:53.232Z,1022.04
2018-09-29T00:27:53.211Z,1022.07
2018-09-29T00:28:53.242Z,1022.08
2018-09-29T00:29:53.180Z,1022.03
2018-09-29T00:30:53.157Z,1022.05
2018-09-29T00:31:53.140Z,1022.05
2018-09-29T00:32:53.121Z,1022.06
2018-09-29T00:33:53.103Z,1022.06
2018-09-29T00:34:53.082Z,1022.03
2018-09-29T00:35:53.068Z,1022.06
2018-09-29T00:36:53.048Z,1022.06
2018-09-29T00:37:53.030Z,1022.07
2018-09-29T00:38:53.009Z,1022.06
2018-09-29T00:39:52.994Z,1022.02
2018-09-29T00:40:52.972Z,1022.08
2018-09-29T00:41:52.961Z,1022.08
2018-09-29T00:42:52.937Z,1022.09
2018-09-29T00:43:52.920Z,1022.05
2018-09-29T00:44:52.898Z,1022
2018-09-29T00:45:52.878Z,1022.01
2018-09-29T00:46:52.862Z,1021.98
2018-09-29T00:47:52.843Z,1021.96
2018-09-29T00:48:52.824Z,1021.99
2018-09-29T00:49:52.808Z,1021.97
2018-09-29T00:50:52.787Z,1021.97
2018-09-29T00:51:52.768Z,1021.96
2018-09-29T00:52:52.749Z,1021.96
2018-09-29T00:53:52.731Z,1021.96
2018-09-29T00:54:52.712Z,1021.98
2018-09-29T00:55:52.701Z,1021.97
2018-09-29T00:56:52.674Z,1021.98
2018-09-29T00:57:52.656Z,1022.01
2018-09-29T00:58:52.637Z,1021.98
2018-09-29T00:59:52.822Z,1022.01
2018-09-29T01:00:52.601Z,1021.98
2018-09-29T01:01:52.581Z,1021.94
2018-09-29T01:02:52.564Z,1021.99
2018-09-29T01:03:52.545Z,1021.92
2018-09-29T01:04:52.526Z,1021.96
2018-09-29T01:05:52.511Z,1021.94
2018-09-29T01:06:52.488Z,1021.97
2018-09-29T01:07:52.470Z,1021.98
2018-09-29T01:08:52.451Z,1022.01
2018-09-29T01:09:52.437Z,1022
2018-09-29T01:10:52.415Z,1022.02
2018-09-29T01:11:52.395Z,1022.01
2018-09-29T01:12:52.378Z,1022
2018-09-29T01:13:52.361Z,1021.97
2018-09-29T01:14:52.340Z,1021.97
2018-09-29T01:15:52.321Z,1021.94
2018-09-29T01:16:52.303Z,1021.93
2018-09-29T01:17:52.282Z,1021.92
2018-09-29T01:18:52.263Z,1021.93
2018-09-29T01:19:52.245Z,1021.93
2018-09-29T01:20:52.226Z,1021.87
2018-09-29T01:21:52.208Z,1021.89
2018-09-29T01:22:52.188Z,1021.83
2018-09-29T01:23:52.170Z,1021.82
2018-09-29T01:24:52.151Z,1021.82
2018-09-29T01:25:52.133Z,1021.84
2018-09-29T01:26:52.114Z,1021.77
2018-09-29T01:27:52.094Z,1021.85
2018-09-29T01:28:52.080Z,1021.81
2018-09-29T01:29:52.060Z,1021.83
2018-09-29T01:30:52.043Z,1021.84
2018-09-29T01:31:52.021Z,1021.84
2018-09-29T01:32:52.001Z,1021.89
2018-09-29T01:33:51.986Z,1021.87
2018-09-29T01:34:51.963Z,1021.86
2018-09-29T01:35:51.949Z,1021.91
2018-09-29T01:36:51.927Z,1021.92
2018-09-29T01:37:51.925Z,1021.9
2018-09-29T01:38:51.895Z,1021.93
2018-09-29T01:39:51.869Z,1021.93
2018-09-29T01:40:51.850Z,1021.96
2018-09-29T01:41:51.831Z,1021.93
2018-09-29T01:42:51.813Z,1021.91
2018-09-29T01:43:51.796Z,1021.96
2018-09-29T01:44:51.776Z,1021.92
2018-09-29T01:45:51.757Z,1021.95
2018-09-29T01:46:51.739Z,1021.95
2018-09-29T01:47:51.718Z,1021.93
2018-09-29T01:48:51.700Z,1021.93
2018-09-29T01:49:51.682Z,1021.92
2018-09-29T01:50:51.662Z,1021.98
2018-09-29T01:51:51.643Z,1021.96
2018-09-29T01:52:51.622Z,1021.99
2018-09-29T01:53:51.611Z,1021.94
2018-09-29T01:54:51.587Z,1021.96
2018-09-29T01:55:51.568Z,1021.92
2018-09-29T01:56:51.548Z,1021.93
2018-09-29T01:57:51.531Z,1021.93
2018-09-29T01:58:51.511Z,1021.93
2018-09-29T01:59:51.493Z,1021.9
2018-09-29T02:00:51.471Z,1021.92
2018-09-29T02:01:51.455Z,1021.94
2018-09-29T02:02:51.440Z,1021.88
2018-09-29T02:03:51.413Z,1021.88
2018-09-29T02:04:51.396Z,1021.91
2018-09-29T02:05:51.376Z,1021.9
2018-09-29T02:06:51.356Z,1021.89
2018-09-29T02:07:51.346Z,1021.9
2018-09-29T02:08:51.320Z,1021.92
2018-09-29T02:09:51.299Z,1021.93
2018-09-29T02:10:51.281Z,1021.97
2018-09-29T02:11:51.264Z,1021.96
2018-09-29T02:12:51.243Z,1021.93
2018-09-29T02:13:51.222Z,1021.9
2018-09-29T02:14:51.204Z,1021.88
2018-09-29T02:15:51.191Z,1021.85
2018-09-29T02:16:51.173Z,1021.88
2018-09-29T02:17:51.152Z,1021.86
2018-09-29T02:18:51.125Z,1021.88
2018-09-29T02:19:51.111Z,1021.89
2018-09-29T02:20:51.087Z,1021.87
2018-09-29T02:21:51.070Z,1021.87
2018-09-29T02:22:51.051Z,1021.89
2018-09-29T02:23:51.030Z,1021.89
2018-09-29T02:24:51.012Z,1021.88
2018-09-29T02:25:50.992Z,1021.9
2018-09-29T02:26:50.972Z,1021.9
2018-09-29T02:27:50.951Z,1021.87
2018-09-29T02:28:50.965Z,1021.87
2018-09-29T02:29:50.916Z,1021.86
2018-09-29T02:30:50.895Z,1021.84
2018-09-29T02:31:50.875Z,1021.81
2018-09-29T02:32:50.854Z,1021.82
2018-09-29T02:33:50.839Z,1021.82
2018-09-29T02:34:50.820Z,1021.82
2018-09-29T02:35:50.799Z,1021.78
2018-09-29T02:36:50.780Z,1021.82
2018-09-29T02:37:50.761Z,1021.8
2018-09-29T02:38:50.739Z,1021.81
2018-09-29T02:39:50.722Z,1021.79
2018-09-29T02:40:50.703Z,1021.78
2018-09-29T02:41:50.682Z,1021.79
2018-09-29T02:42:50.661Z,1021.73
2018-09-29T02:43:50.643Z,1021.76
2018-09-29T02:44:50.622Z,1021.76
2018-09-29T02:45:50.605Z,1021.79
2018-09-29T02:46:50.585Z,1021.82
2018-09-29T02:47:50.567Z,1021.83
2018-09-29T02:48:50.551Z,1021.84
2018-09-29T02:49:50.525Z,1021.84
2018-09-29T02:50:50.506Z,1021.86
2018-09-29T02:51:50.488Z,1021.79
2018-09-29T02:52:50.470Z,1021.81
2018-09-29T02:53:50.448Z,1021.78
2018-09-29T02:54:50.428Z,1021.79
2018-09-29T02:55:50.408Z,1021.79
2018-09-29T02:56:50.390Z,1021.8
2018-09-29T02:57:50.369Z,1021.82
2018-09-29T02:58:50.353Z,1021.75
2018-09-29T03:00:50.311Z,1021.8
2018-09-29T03:01:50.294Z,1021.77
2018-09-29T03:02:50.277Z,1021.76
2018-09-29T03:03:50.255Z,1021.76
2018-09-29T03:04:50.235Z,1021.75
2018-09-29T03:05:50.214Z,1021.78
2018-09-29T03:06:50.194Z,1021.75
2018-09-29T03:07:50.176Z,1021.77
2018-09-29T03:08:50.156Z,1021.74
2018-09-29T03:09:50.138Z,1021.71
2018-09-29T03:10:50.116Z,1021.71
2018-09-29T03:11:50.098Z,1021.68
2018-09-29T03:12:50.077Z,1021.62
2018-09-29T03:13:50.060Z,1021.64
2018-09-29T03:14:50.041Z,1021.64
2018-09-29T03:15:50.019Z,1021.66
2018-09-29T03:16:50.000Z,1021.67
2018-09-29T03:17:49.981Z,1021.64
2018-09-29T03:18:49.960Z,1021.68
2018-09-29T03:19:49.941Z,1021.7
2018-09-29T03:20:49.923Z,1021.72
2018-09-29T03:21:49.903Z,1021.68
2018-09-29T03:22:49.885Z,1021.7
2018-09-29T03:23:49.864Z,1021.71
2018-09-29T03:24:49.846Z,1021.7
2018-09-29T03:25:49.824Z,1021.68
2018-09-29T03:26:49.806Z,1021.7
2018-09-29T03:27:49.788Z,1021.69
2018-09-29T03:28:49.770Z,1021.73
2018-09-29T03:29:49.745Z,1021.72
2018-09-29T03:30:49.728Z,1021.76
2018-09-29T03:31:49.863Z,1021.74
2018-09-29T03:32:49.688Z,1021.73
2018-09-29T03:33:49.669Z,1021.75
2018-09-29T03:34:49.649Z,1021.7
2018-09-29T03:35:49.628Z,1021.71
2018-09-29T03:36:49.611Z,1021.72
2018-09-29T03:37:49.588Z,1021.67
2018-09-29T03:38:49.569Z,1021.65
2018-09-29T03:39:49.548Z,1021.62
2018-09-29T03:40:49.529Z,1021.57
2018-09-29T03:41:49.508Z,1021.63
2018-09-29T03:42:49.495Z,1021.6
2018-09-29T03:43:49.478Z,1021.59
2018-09-29T03:44:49.450Z,1021.57
2018-09-29T03:45:49.430Z,1021.57
2018-09-29T03:46:49.424Z,1021.59
2018-09-29T03:47:49.395Z,1021.61
2018-09-29T03:48:49.371Z,1021.62
2018-09-29T03:49:49.352Z,1021.63
2018-09-29T03:50:49.343Z,1021.61
2018-09-29T03:51:49.315Z,1021.6
2018-09-29T03:52:49.296Z,1021.55
2018-09-29T03:53:49.279Z,1021.55
2018-09-29T03:54:49.255Z,1021.52
2018-09-29T03:55:49.233Z,1021.54
2018-09-29T03:56:49.215Z,1021.54
2018-09-29T03:57:49.195Z,1021.57
2018-09-29T03:58:49.185Z,1021.57
2018-09-29T03:59:49.155Z,1021.61
2018-09-29T04:00:49.135Z,1021.6
2018-09-29T04:01:49.119Z,1021.59
2018-09-29T04:02:49.096Z,1021.61
2018-09-29T04:03:49.075Z,1021.58
2018-09-29T04:04:49.061Z,1021.62
2018-09-29T04:05:49.038Z,1021.58
2018-09-29T04:06:49.016Z,1021.59
2018-09-29T04:07:48.997Z,1021.57
2018-09-29T04:08:48.976Z,1021.54
2018-09-29T04:09:48.961Z,1021.51
2018-09-29T04:10:48.937Z,1021.51
2018-09-29T04:11:48.919Z,1021.55
2018-09-29T04:12:48.899Z,1021.52
2018-09-29T04:13:49.011Z,1021.53
2018-09-29T04:14:48.859Z,1021.55
2018-09-29T04:15:48.840Z,1021.59
2018-09-29T04:16:48.819Z,1021.61
2018-09-29T04:17:48.797Z,1021.56
2018-09-29T04:18:48.779Z,1021.55
2018-09-29T04:19:48.763Z,1021.52
2018-09-29T04:20:48.744Z,1021.57
2018-09-29T04:21:48.719Z,1021.59
2018-09-29T04:22:48.703Z,1021.55
2018-09-29T04:23:48.681Z,1021.59
2018-09-29T04:24:48.660Z,1021.63
2018-09-29T04:25:48.641Z,1021.65
2018-09-29T04:26:48.621Z,1021.63
2018-09-29T04:27:48.601Z,1021.67
2018-09-29T04:28:48.585Z,1021.65
2018-09-29T04:29:48.562Z,1021.59
2018-09-29T04:30:48.541Z,1021.6
2018-09-29T04:31:48.522Z,1021.61
2018-09-29T04:32:48.503Z,1021.59
2018-09-29T04:33:48.486Z,1021.59
2018-09-29T04:34:48.462Z,1021.61
2018-09-29T04:35:48.445Z,1021.63
2018-09-29T04:36:48.423Z,1021.63
2018-09-29T04:37:48.405Z,1021.65
2018-09-29T04:38:48.385Z,1021.64
2018-09-29T04:39:48.363Z,1021.67
2018-09-29T04:40:48.343Z,1021.67
2018-09-29T04:41:48.323Z,1021.73
2018-09-29T04:42:48.305Z,1021.71
2018-09-29T04:43:48.284Z,1021.71
2018-09-29T04:44:48.266Z,1021.74
2018-09-29T04:45:48.244Z,1021.7
2018-09-29T04:46:48.224Z,1021.74
2018-09-29T04:47:48.205Z,1021.72
2018-09-29T04:48:48.185Z,1021.78
2018-09-29T04:49:48.164Z,1021.74
2018-09-29T04:50:48.149Z,1021.75
2018-09-29T04:51:48.126Z,1021.8
2018-09-29T04:52:48.104Z,1021.81
2018-09-29T04:53:48.085Z,1021.82
2018-09-29T04:54:48.067Z,1021.87
2018-09-29T04:55:48.046Z,1021.89
2018-09-29T04:56:48.028Z,1021.87
2018-09-29T04:57:48.007Z,1021.87
2018-09-29T04:58:47.988Z,1021.83
2018-09-29T04:59:47.974Z,1021.81
2018-09-29T05:00:47.946Z,1021.81
2018-09-29T05:01:47.929Z,1021.86
2018-09-29T05:02:47.905Z,1021.84
2018-09-29T05:03:47.886Z,1021.84
2018-09-29T05:04:47.867Z,1021.86
2018-09-29T05:05:47.846Z,1021.85
2018-09-29T05:06:47.827Z,1021.89
2018-09-29T05:07:47.814Z,1021.93
2018-09-29T05:08:47.788Z,1021.92
2018-09-29T05:09:47.767Z,1021.89
2018-09-29T05:10:47.749Z,1021.89
2018-09-29T05:11:47.727Z,1021.9
2018-09-29T05:12:47.706Z,1021.87
2018-09-29T05:13:47.735Z,1021.88
2018-09-29T05:14:47.667Z,1021.9
2018-09-29T05:15:47.647Z,1021.93
2018-09-29T05:16:47.628Z,1021.91
2018-09-29T05:17:47.607Z,1021.89
2018-09-29T05:18:47.589Z,1021.91
2018-09-29T05:19:47.564Z,1021.91
2018-09-29T05:20:47.696Z,1021.89
2018-09-29T05:21:47.530Z,1021.9
2018-09-29T05:22:47.507Z,1021.94
2018-09-29T05:23:47.486Z,1021.95
2018-09-29T05:24:47.467Z,1021.94
2018-09-29T05:25:47.446Z,1021.95
2018-09-29T05:26:47.426Z,1022
2018-09-29T05:27:47.406Z,1021.95
2018-09-29T05:28:47.386Z,1021.91
2018-09-29T05:29:47.367Z,1021.91
2018-09-29T05:30:47.347Z,1021.85
2018-09-29T05:31:47.327Z,1021.86
2018-09-29T05:32:47.306Z,1021.89
2018-09-29T05:33:47.287Z,1021.87
2018-09-29T05:34:47.268Z,1021.92
2018-09-29T05:35:47.245Z,1021.92
2018-09-29T05:36:47.223Z,1021.88
2018-09-29T05:37:47.206Z,1021.89
2018-09-29T05:38:47.184Z,1021.89
2018-09-29T05:39:47.167Z,1021.87
2018-09-29T05:40:47.144Z,1021.87
2018-09-29T05:41:47.125Z,1021.86
2018-09-29T05:42:47.105Z,1021.86
2018-09-29T05:43:47.118Z,1021.82
2018-09-29T05:44:47.064Z,1021.82
2018-09-29T05:45:47.043Z,1021.8
2018-09-29T05:46:47.025Z,1021.82
2018-09-29T05:47:47.005Z,1021.79
2018-09-29T05:48:46.983Z,1021.81
2018-09-29T05:49:46.965Z,1021.9
2018-09-29T05:50:46.944Z,1021.87
2018-09-29T05:51:46.924Z,1021.88
2018-09-29T05:52:46.905Z,1021.92
2018-09-29T05:53:46.943Z,1021.91
2018-09-29T05:54:46.865Z,1021.94
2018-09-29T05:55:46.843Z,1021.94
2018-09-29T05:56:46.824Z,1021.95
2018-09-29T05:57:46.804Z,1021.96
2018-09-29T05:58:46.782Z,1021.96
2018-09-29T05:59:46.760Z,1021.97
2018-09-29T06:00:46.743Z,1022
2018-09-29T06:01:46.722Z,1022.01
2018-09-29T06:02:46.702Z,1022.08
2018-09-29T06:03:46.687Z,1022.12
2018-09-29T06:04:46.664Z,1022.19
2018-09-29T06:05:46.700Z,1022.19
2018-09-29T06:06:46.637Z,1022.12
2018-09-29T06:07:46.603Z,1022.13
2018-09-29T06:08:46.581Z,1022.11
2018-09-29T06:09:46.562Z,1022.14
2018-09-29T06:10:46.541Z,1022.17
2018-09-29T06:11:46.522Z,1022.19
2018-09-29T06:12:46.502Z,1022.17
2018-09-29T06:13:46.485Z,1022.21
2018-09-29T06:14:46.462Z,1022.23
2018-09-29T06:15:46.441Z,1022.25
2018-09-29T06:16:46.427Z,1022.23
2018-09-29T06:17:46.404Z,1022.18
2018-09-29T06:18:46.383Z,1022.18
2018-09-29T06:19:46.362Z,1022.18
2018-09-29T06:20:46.381Z,1022.15
2018-09-29T06:21:46.322Z,1022.13
2018-09-29T06:22:46.302Z,1022.1
2018-09-29T06:23:46.284Z,1022.07
2018-09-29T06:24:46.262Z,1022.14
2018-09-29T06:25:46.247Z,1022.15
2018-09-29T06:26:46.224Z,1022.2
2018-09-29T06:27:46.209Z,1022.21
2018-09-29T06:28:46.184Z,1022.19
2018-09-29T06:29:46.165Z,1022.14
2018-09-29T06:30:46.146Z,1022.09
2018-09-29T06:31:46.126Z,1022.08
2018-09-29T06:32:46.106Z,1022.09
2018-09-29T06:33:46.092Z,1022.15
2018-09-29T06:34:46.067Z,1022.13
2018-09-29T06:35:46.047Z,1022.15
2018-09-29T06:36:46.034Z,1022.17
2018-09-29T06:37:46.009Z,1022.14
2018-09-29T06:38:45.988Z,1022.12
2018-09-29T06:39:45.969Z,1022.09
2018-09-29T06:40:46.028Z,1022.09
2018-09-29T06:41:45.931Z,1022.04
2018-09-29T06:42:45.911Z,1022.06
2018-09-29T06:43:45.894Z,1022.07
2018-09-29T06:44:45.879Z,1022.03
2018-09-29T06:45:45.852Z,1022.07
2018-09-29T06:46:45.834Z,1022.09
2018-09-29T06:47:45.910Z,1022.11
2018-09-29T06:48:45.800Z,1022.07
2018-09-29T06:49:45.774Z,1022.08
2018-09-29T06:50:45.756Z,1022.07
2018-09-29T06:51:45.737Z,1022.1
2018-09-29T06:52:45.718Z,1022.1
2018-09-29T06:53:45.699Z,1022.11
2018-09-29T06:54:45.678Z,1022.15
2018-09-29T06:55:45.657Z,1022.09
2018-09-29T06:56:45.640Z,1022.15
2018-09-29T06:57:45.625Z,1022.17
2018-09-29T06:58:45.602Z,1022.2
2018-09-29T06:59:45.583Z,1022.19
2018-09-29T07:00:45.765Z,1022.21
2018-09-29T07:01:45.544Z,1022.2
2018-09-29T07:02:45.526Z,1022.18
2018-09-29T07:03:45.505Z,1022.19
2018-09-29T07:04:45.534Z,1022.16
2018-09-29T07:05:45.467Z,1022.16
2018-09-29T07:06:45.449Z,1022.18
2018-09-29T07:07:45.429Z,1022.18
2018-09-29T07:08:45.420Z,1022.17
2018-09-29T07:09:45.392Z,1022.23
2018-09-29T07:10:45.374Z,1022.23
2018-09-29T07:11:45.356Z,1022.23
2018-09-29T07:12:45.350Z,1022.25
2018-09-29T07:13:45.316Z,1022.27
2018-09-29T07:14:45.297Z,1022.26
2018-09-29T07:15:45.281Z,1022.27
2018-09-29T07:16:45.263Z,1022.26
2018-09-29T07:17:45.244Z,1022.25
2018-09-29T07:18:45.222Z,1022.27
2018-09-29T07:19:45.208Z,1022.21
2018-09-29T07:20:45.186Z,1022.21
2018-09-29T07:21:45.277Z,1022.25
2018-09-29T07:22:45.152Z,1022.25
2018-09-29T07:23:45.136Z,1022.29
2018-09-29T07:24:45.113Z,1022.26
2018-09-29T07:25:45.098Z,1022.25
2018-09-29T07:26:45.075Z,1022.24
2018-09-29T07:27:45.056Z,1022.23
2018-09-29T07:28:45.043Z,1022.22
2018-09-29T07:29:45.021Z,1022.25
2018-09-29T07:30:45.006Z,1022.29
2018-09-29T07:31:44.983Z,1022.29
2018-09-29T07:32:44.968Z,1022.32
2018-09-29T07:33:44.945Z,1022.36
2018-09-29T07:34:44.933Z,1022.34
2018-09-29T07:35:44.909Z,1022.36
2018-09-29T07:36:44.893Z,1022.33
2018-09-29T07:37:44.876Z,1022.34
2018-09-29T07:38:44.855Z,1022.37
2018-09-29T07:39:44.838Z,1022.36
2018-09-29T07:40:44.821Z,1022.36
2018-09-29T07:41:44.800Z,1022.37
2018-09-29T07:42:44.782Z,1022.36
2018-09-29T07:43:44.765Z,1022.39
2018-09-29T07:44:44.746Z,1022.38
2018-09-29T07:45:44.729Z,1022.42
2018-09-29T07:46:44.708Z,1022.38
2018-09-29T07:47:44.691Z,1022.37
2018-09-29T07:48:44.673Z,1022.36
2018-09-29T07:49:44.654Z,1022.32
2018-09-29T07:50:44.639Z,1022.34
2018-09-29T07:51:44.623Z,1022.35
2018-09-29T07:52:44.602Z,1022.36
2018-09-29T07:53:44.583Z,1022.31
2018-09-29T07:54:44.597Z,1022.33
2018-09-29T07:55:44.553Z,1022.3
2018-09-29T07:56:44.530Z,1022.29
2018-09-29T07:57:44.510Z,1022.3
2018-09-29T07:58:44.492Z,1022.32
2018-09-29T07:59:44.474Z,1022.33
2018-09-29T08:00:44.457Z,1022.27
2018-09-29T08:01:44.439Z,1022.33
2018-09-29T08:02:44.420Z,1022.38
2018-09-29T08:03:44.404Z,1022.37
2018-09-29T08:04:44.387Z,1022.34
2018-09-29T08:05:44.368Z,1022.32
2018-09-29T08:06:44.352Z,1022.3
2018-09-29T08:07:44.332Z,1022.26
2018-09-29T08:08:44.315Z,1022.28
2018-09-29T08:09:44.296Z,1022.24
2018-09-29T08:10:44.281Z,1022.26
2018-09-29T08:11:44.262Z,1022.29
2018-09-29T08:12:44.245Z,1022.27
2018-09-29T08:13:44.228Z,1022.28
2018-09-29T08:14:44.209Z,1022.29
2018-09-29T08:15:44.194Z,1022.29
2018-09-29T08:16:44.175Z,1022.3
2018-09-29T08:17:44.158Z,1022.34
2018-09-29T08:18:44.140Z,1022.32
2018-09-29T08:19:44.124Z,1022.27
2018-09-29T08:20:44.108Z,1022.26
2018-09-29T08:21:44.091Z,1022.29
2018-09-29T08:22:44.074Z,1022.25
2018-09-29T08:23:44.055Z,1022.26
2018-09-29T08:24:44.037Z,1022.29
2018-09-29T08:25:44.024Z,1022.24
2018-09-29T08:26:44.002Z,1022.3
2018-09-29T08:27:43.987Z,1022.34
2018-09-29T08:28:43.976Z,1022.35
2018-09-29T08:29:43.953Z,1022.34
2018-09-29T08:30:43.937Z,1022.35
2018-09-29T08:31:43.917Z,1022.31
2018-09-29T08:32:43.905Z,1022.32
2018-09-29T08:33:43.885Z,1022.32
2018-09-29T08:34:43.868Z,1022.28
2018-09-29T08:35:43.850Z,1022.32
2018-09-29T08:36:43.835Z,1022.3
2018-09-29T08:37:43.859Z,1022.31
2018-09-29T08:38:43.801Z,1022.31
2018-09-29T08:39:43.787Z,1022.31
2018-09-29T08:40:43.772Z,1022.35
2018-09-29T08:41:43.750Z,1022.33
2018-09-29T08:42:43.733Z,1022.34
2018-09-29T08:43:43.718Z,1022.35
2018-09-29T08:44:43.701Z,1022.33
2018-09-29T08:45:43.683Z,1022.3
2018-09-29T08:46:43.726Z,1022.3
2018-09-29T08:47:43.649Z,1022.29
2018-09-29T08:48:43.632Z,1022.34
2018-09-29T08:49:43.625Z,1022.35
2018-09-29T08:50:43.601Z,1022.33
2018-09-29T08:51:43.586Z,1022.32
2018-09-29T08:52:43.568Z,1022.26
2018-09-29T08:53:43.600Z,1022.25
2018-09-29T08:54:43.536Z,1022.28
2018-09-29T08:55:43.522Z,1022.27
2018-09-29T08:56:43.501Z,1022.28
2018-09-29T08:57:43.489Z,1022.28
2018-09-29T08:58:43.469Z,1022.27
2018-09-29T08:59:43.456Z,1022.29
2018-09-29T09:00:43.640Z,1022.25
2018-09-29T09:01:43.426Z,1022.25
2018-09-29T09:02:43.407Z,1022.24
2018-09-29T09:03:43.390Z,1022.26
2018-09-29T09:04:43.376Z,1022.23
2018-09-29T09:05:43.358Z,1022.2
2018-09-29T09:06:43.339Z,1022.22
2018-09-29T09:07:43.324Z,1022.19
2018-09-29T09:08:43.308Z,1022.2
2018-09-29T09:09:43.291Z,1022.18
2018-09-29T09:10:43.276Z,1022.2
2018-09-29T09:11:43.262Z,1022.22
2018-09-29T09:12:43.244Z,1022.21
2018-09-29T09:13:43.230Z,1022.21
2018-09-29T09:14:43.216Z,1022.13
2018-09-29T09:15:43.200Z,1022.18
2018-09-29T09:16:43.181Z,1022.16
2018-09-29T09:17:43.164Z,1022.18
2018-09-29T09:18:43.151Z,1022.14
2018-09-29T09:19:43.131Z,1022.13
2018-09-29T09:20:43.116Z,1022.17
2018-09-29T09:21:43.099Z,1022.12
2018-09-29T09:22:43.093Z,1022.11
2018-09-29T09:23:43.121Z,1022.07
2018-09-29T09:24:43.054Z,1022.09
2018-09-29T09:25:43.047Z,1022.06
2018-09-29T09:26:43.021Z,1022.04
2018-09-29T09:27:43.007Z,1022.07
2018-09-29T09:28:42.990Z,1022.06
2018-09-29T09:29:43.002Z,1022.07
2018-09-29T09:30:42.966Z,1022.02
2018-09-29T09:31:42.951Z,1022.05
2018-09-29T09:32:42.931Z,1022.05
2018-09-29T09:33:42.912Z,1022.05
2018-09-29T09:34:42.898Z,1022
2018-09-29T09:35:42.885Z,1022.01
2018-09-29T09:36:42.867Z,1022.02
2018-09-29T09:37:42.851Z,1022.03
2018-09-29T09:38:42.838Z,1022.01
2018-09-29T09:39:42.826Z,1021.99
2018-09-29T09:40:42.805Z,1022
2018-09-29T09:41:42.793Z,1022
2018-09-29T09:42:42.778Z,1022.02
2018-09-29T09:43:42.760Z,1021.98
2018-09-29T09:44:42.744Z,1021.95
2018-09-29T09:45:42.730Z,1021.91
2018-09-29T09:46:42.716Z,1021.88
2018-09-29T09:47:42.698Z,1021.87
2018-09-29T09:48:42.686Z,1021.85
2018-09-29T09:49:42.676Z,1021.83
2018-09-29T09:50:42.655Z,1021.82
2018-09-29T09:51:42.639Z,1021.83
2018-09-29T09:52:42.623Z,1021.9
2018-09-29T09:53:42.613Z,1021.88
2018-09-29T09:54:42.597Z,1021.9
2018-09-29T09:55:42.579Z,1021.83
2018-09-29T09:56:42.568Z,1021.84
2018-09-29T09:57:42.554Z,1021.82
2018-09-29T09:58:42.533Z,1021.81
2018-09-29T09:59:42.523Z,1021.85
2018-09-29T10:00:42.506Z,1021.86
2018-09-29T10:01:42.491Z,1021.85
2018-09-29T10:02:42.479Z,1021.82
2018-09-29T10:03:42.464Z,1021.81
2018-09-29T10:04:42.455Z,1021.81
2018-09-29T10:05:42.430Z,1021.76
2018-09-29T10:06:42.415Z,1021.77
2018-09-29T10:07:42.405Z,1021.73
2018-09-29T10:08:42.390Z,1021.75
2018-09-29T10:09:42.374Z,1021.78
2018-09-29T10:10:42.361Z,1021.78
2018-09-29T10:11:42.345Z,1021.76
2018-09-29T10:12:42.330Z,1021.74
2018-09-29T10:13:42.314Z,1021.77
2018-09-29T10:14:42.301Z,1021.71
2018-09-29T10:15:42.287Z,1021.67
2018-09-29T10:16:42.273Z,1021.71
2018-09-29T10:17:42.257Z,1021.64
2018-09-29T10:18:42.243Z,1021.63
2018-09-29T10:19:42.237Z,1021.64
2018-09-29T10:20:42.226Z,1021.63
2018-09-29T10:21:42.200Z,1021.66
2018-09-29T10:22:42.185Z,1021.63
2018-09-29T10:23:42.175Z,1021.61
2018-09-29T10:24:42.160Z,1021.61
2018-09-29T10:25:42.142Z,1021.55
2018-09-29T10:26:42.128Z,1021.55
2018-09-29T10:27:42.144Z,1021.57
2018-09-29T10:28:42.100Z,1021.55
2018-09-29T10:29:42.088Z,1021.54
2018-09-29T10:30:42.075Z,1021.51
2018-09-29T10:31:42.058Z,1021.54
2018-09-29T10:32:42.043Z,1021.5
2018-09-29T10:33:42.034Z,1021.46
2018-09-29T10:34:42.018Z,1021.43
2018-09-29T10:35:42.002Z,1021.45
2018-09-29T10:36:41.990Z,1021.41
2018-09-29T10:37:41.974Z,1021.38
2018-09-29T10:38:41.964Z,1021.35
2018-09-29T10:39:41.945Z,1021.35
2018-09-29T10:40:41.933Z,1021.35
2018-09-29T10:41:41.920Z,1021.36
2018-09-29T10:42:41.902Z,1021.34
2018-09-29T10:43:41.890Z,1021.34
2018-09-29T10:44:41.877Z,1021.3
2018-09-29T10:45:41.864Z,1021.29
2018-09-29T10:46:41.847Z,1021.26
2018-09-29T10:47:41.834Z,1021.26
2018-09-29T10:48:41.821Z,1021.33
2018-09-29T10:49:41.810Z,1021.26
2018-09-29T10:50:41.795Z,1021.25
2018-09-29T10:51:41.783Z,1021.27
2018-09-29T10:52:41.766Z,1021.21
2018-09-29T10:53:41.754Z,1021.14
2018-09-29T10:54:41.739Z,1021.17
2018-09-29T10:55:41.723Z,1021.17
2018-09-29T10:56:41.713Z,1021.17
2018-09-29T10:57:41.699Z,1021.17
2018-09-29T10:58:41.683Z,1021.15
2018-09-29T10:59:41.670Z,1021.18
2018-09-29T11:00:41.860Z,1021.13
2018-09-29T11:01:41.651Z,1021.15
2018-09-29T11:02:41.726Z,1021.18
2018-09-29T11:03:41.621Z,1021.17
2018-09-29T11:04:41.603Z,1021.18
2018-09-29T11:05:41.592Z,1021.14
2018-09-29T11:06:41.576Z,1021.12
2018-09-29T11:07:41.564Z,1021.11
2018-09-29T11:08:41.550Z,1021.09
2018-09-29T11:09:41.538Z,1021.06
2018-09-29T11:10:41.525Z,1021.11
2018-09-29T11:11:41.514Z,1021.06
2018-09-29T11:12:41.499Z,1021.04
2018-09-29T11:13:41.491Z,1021.05
2018-09-29T11:14:41.474Z,1021.06
2018-09-29T11:15:41.462Z,1020.95
2018-09-29T11:16:41.458Z,1021
2018-09-29T11:17:41.439Z,1020.92
2018-09-29T11:18:41.421Z,1020.94
2018-09-29T11:19:41.410Z,1020.93
2018-09-29T11:20:41.452Z,1020.92
2018-09-29T11:21:41.385Z,1020.84
2018-09-29T11:22:41.373Z,1020.84
2018-09-29T11:23:41.359Z,1020.84
2018-09-29T11:24:41.346Z,1020.86
2018-09-29T11:25:41.336Z,1020.83
2018-09-29T11:26:41.322Z,1020.79
2018-09-29T11:27:41.354Z,1020.75
2018-09-29T11:28:41.297Z,1020.7
2018-09-29T11:29:41.285Z,1020.66
2018-09-29T11:30:41.274Z,1020.69
2018-09-29T11:31:41.269Z,1020.65
2018-09-29T11:32:41.252Z,1020.67
2018-09-29T11:33:41.236Z,1020.66
2018-09-29T11:34:41.226Z,1020.66
2018-09-29T11:35:41.212Z,1020.67
2018-09-29T11:36:41.201Z,1020.63
2018-09-29T11:37:41.191Z,1020.59
2018-09-29T11:38:41.180Z,1020.64
2018-09-29T11:39:41.167Z,1020.58
2018-09-29T11:40:41.238Z,1020.57
2018-09-29T11:41:41.148Z,1020.57
2018-09-29T11:42:41.136Z,1020.55
2018-09-29T11:43:41.126Z,1020.55
2018-09-29T11:44:41.134Z,1020.52
2018-09-29T11:45:41.108Z,1020.52
2018-09-29T11:46:41.092Z,1020.47
2018-09-29T11:47:41.082Z,1020.38
2018-09-29T11:48:41.073Z,1020.38
2018-09-29T11:49:41.066Z,1020.4
2018-09-29T11:50:41.059Z,1020.4
2018-09-29T11:51:41.045Z,1020.4
2018-09-29T11:52:41.039Z,1020.37
2018-09-29T11:53:41.030Z,1020.41
2018-09-29T11:54:41.020Z,1020.44
2018-09-29T11:55:41.017Z,1020.41
2018-09-29T11:56:41.012Z,1020.34
2018-09-29T11:57:41.003Z,1020.33
2018-09-29T11:58:40.993Z,1020.33
2018-09-29T11:59:40.989Z,1020.34
2018-09-29T12:00:40.985Z,1020.34
2018-09-29T12:01:40.987Z,1020.37
2018-09-29T12:02:40.973Z,1020.39
2018-09-29T12:03:40.969Z,1020.35
2018-09-29T12:04:40.965Z,1020.33
2018-09-29T12:05:40.958Z,1020.36
2018-09-29T12:06:40.965Z,1020.29
2018-09-29T12:07:40.954Z,1020.32
2018-09-29T12:08:40.949Z,1020.3
2018-09-29T12:09:40.946Z,1020.31